Time;durP1;ratioP1;P1;durP2;ratioP2;P2;SDS_P1;SDS_P2;PMS_P1;PMS_P2;Temp;Humidity;BMP_temperature;BMP_pressure;BME280_temperature;BME280_humidity;BME280_pressure;Samples;Min_cycle;Max_cycle;Signal;HPM_P1;HPM_P2
2024/03/18 00:02:26;;;;;;;1.92;1.70;;;19.30;57.10;;;;;;5036382;28;20402;-50
2024/03/18 00:04:52;;;;;;;2.03;1.75;;;19.30;57.10;;;;;;5037831;28;20089;-54
2024/03/18 00:07:21;;;;;;;1.27;1.15;;;19.30;57.10;;;;;;5039572;28;20029;-53
2024/03/18 00:09:47;;;;;;;1.30;1.20;;;19.30;57.10;;;;;;5037188;28;20501;-53
2024/03/18 00:12:12;;;;;;;2.33;1.60;;;19.30;57.10;;;;;;5033852;28;20131;-52
2024/03/18 00:14:38;;;;;;;2.10;1.50;;;19.20;57.00;;;;;;5034867;28;20109;-54
2024/03/18 00:17:07;;;;;;;2.30;1.40;;;19.30;57.10;;;;;;5036514;28;20159;-58
2024/03/18 00:19:32;;;;;;;2.03;1.58;;;19.30;57.20;;;;;;5029778;28;20036;-55
2024/03/18 00:21:58;;;;;;;1.52;1.42;;;19.30;57.10;;;;;;5037575;28;20758;-52
2024/03/18 00:24:23;;;;;;;2.17;1.85;;;19.20;57.10;;;;;;5034876;28;20037;-54
2024/03/18 00:26:49;;;;;;;2.15;1.48;;;19.20;57.20;;;;;;5034198;28;20061;-55
2024/03/18 00:29:14;;;;;;;1.92;1.40;;;19.20;57.20;;;;;;5039165;28;20126;-52
2024/03/18 00:31:41;;;;;;;1.95;1.33;;;19.20;57.10;;;;;;5033064;28;20498;-61
2024/03/18 00:34:06;;;;;;;1.77;1.40;;;19.20;57.20;;;;;;5036262;28;20025;-54
2024/03/18 00:36:32;;;;;;;1.50;1.33;;;19.20;57.80;;;;;;5036411;28;20037;-52
2024/03/18 00:38:57;;;;;;;4.03;1.50;;;19.20;57.20;;;;;;5034430;28;20136;-54
2024/03/18 00:44:07;;;;;;;1.95;1.50;;;19.20;57.20;;;;;;5036405;28;20086;-56
2024/03/18 00:46:33;;;;;;;1.50;1.25;;;19.20;57.20;;;;;;5033947;28;20529;-51
2024/03/18 00:49:01;;;;;;;2.05;1.23;;;19.20;57.20;;;;;;5032606;28;20045;-55
2024/03/18 00:51:26;;;;;;;3.25;1.58;;;19.20;57.20;;;;;;5028867;28;20033;-57
2024/03/18 00:53:52;;;;;;;1.95;1.45;;;19.20;57.10;;;;;;5035633;28;20117;-53
2024/03/18 00:56:17;;;;;;;2.15;1.40;;;19.20;57.20;;;;;;5032302;28;20103;-55
2024/03/18 00:58:43;;;;;;;1.52;1.13;;;19.20;57.20;;;;;;5038030;28;20033;-58
2024/03/18 01:01:08;;;;;;;1.65;1.40;;;19.20;57.20;;;;;;5032439;28;20040;-53
2024/03/18 01:03:34;;;;;;;1.48;1.38;;;19.20;57.20;;;;;;5034951;28;20401;-53
2024/03/18 01:06:00;;;;;;;2.53;1.33;;;19.20;57.20;;;;;;5037774;28;20064;-55
2024/03/18 01:08:26;;;;;;;1.95;1.38;;;19.10;57.20;;;;;;5035444;28;20021;-58
2024/03/18 01:10:51;;;;;;;1.55;1.45;;;19.20;57.20;;;;;;5031647;28;20052;-55
2024/03/18 01:13:17;;;;;;;1.45;1.20;;;19.20;57.20;;;;;;5037645;28;20033;-58
2024/03/18 01:15:43;;;;;;;1.73;1.38;;;19.10;57.20;;;;;;5029326;28;20033;-59
2024/03/18 01:18:08;;;;;;;2.15;1.40;;;19.20;57.20;;;;;;5036320;28;20112;-57
2024/03/18 01:20:35;;;;;;;2.22;1.65;;;19.20;57.20;;;;;;5030990;28;20040;-58
2024/03/18 01:23:10;;;;;;;2.70;1.40;;;19.20;57.30;;;;;;5033215;28;20041;-57
2024/03/18 01:25:36;;;;;;;2.83;1.15;;;19.20;57.20;;;;;;5028625;28;20104;-52
2024/03/18 01:28:01;;;;;;;2.78;1.70;;;19.10;57.10;;;;;;5037194;28;20190;-54
2024/03/18 01:30:27;;;;;;;1.75;1.30;;;19.10;57.20;;;;;;5033519;28;20044;-55
2024/03/18 01:32:52;;;;;;;1.40;1.27;;;19.10;57.20;;;;;;5036633;28;20029;-58
2024/03/18 01:35:22;;;;;;;1.52;1.40;;;19.10;57.20;;;;;;5037893;28;20041;-53
2024/03/18 01:37:48;;;;;;;2.00;1.55;;;19.10;57.10;;;;;;5032382;28;20038;-53
2024/03/18 01:40:14;;;;;;;1.55;1.20;;;19.10;57.30;;;;;;5032485;28;20035;-54
2024/03/18 01:42:40;;;;;;;1.77;1.30;;;19.10;57.30;;;;;;5035046;28;20482;-58
2024/03/18 01:45:06;;;;;;;1.58;1.20;;;19.00;57.30;;;;;;5030825;28;20037;-52
2024/03/18 01:47:32;;;;;;;2.03;1.60;;;19.00;57.40;;;;;;5033189;28;20033;-52
2024/03/18 01:49:58;;;;;;;1.75;1.52;;;19.00;57.50;;;;;;5027713;28;20111;-53
2024/03/18 01:52:24;;;;;;;2.25;1.38;;;19.00;57.40;;;;;;5024653;28;20620;-56
2024/03/18 01:54:50;;;;;;;2.17;1.42;;;18.90;57.50;;;;;;5032863;28;20037;-55
2024/03/18 01:57:15;;;;;;;1.88;1.60;;;18.90;57.60;;;;;;5035574;28;20548;-55
2024/03/18 01:59:41;;;;;;;1.63;1.23;;;18.90;57.60;;;;;;5028684;28;20112;-58
2024/03/18 02:02:07;;;;;;;2.85;1.60;;;18.80;57.60;;;;;;5039960;28;20555;-55
2024/03/18 02:04:33;;;;;;;1.38;1.10;;;18.80;57.70;;;;;;5033603;28;20033;-54
2024/03/18 02:06:58;;;;;;;2.33;1.30;;;18.80;57.60;;;;;;5040048;28;20515;-55
2024/03/18 02:09:27;;;;;;;4.65;1.33;;;18.80;57.70;;;;;;5041697;28;20079;-53
2024/03/18 02:11:54;;;;;;;1.42;1.30;;;18.80;57.70;;;;;;5039024;28;20025;-59
2024/03/18 02:14:20;;;;;;;1.60;1.15;;;18.80;57.60;;;;;;5036331;28;20037;-56
2024/03/18 02:16:45;;;;;;;2.05;1.48;;;18.80;57.60;;;;;;5037739;28;20090;-57
2024/03/18 02:19:11;;;;;;;1.75;1.50;;;18.80;57.60;;;;;;5041599;28;20041;-56
2024/03/18 02:21:37;;;;;;;1.45;1.27;;;18.80;57.60;;;;;;5037629;28;20037;-52
2024/03/18 02:24:06;;;;;;;1.65;1.30;;;18.80;57.60;;;;;;5037434;28;20083;-55
2024/03/18 02:26:32;;;;;;;1.73;1.35;;;18.80;57.60;;;;;;5039448;28;20043;-56
2024/03/18 02:28:58;;;;;;;1.30;1.20;;;18.80;57.60;;;;;;5039853;28;20521;-55
2024/03/18 02:31:23;;;;;;;1.73;1.40;;;18.80;57.50;;;;;;5040374;28;20029;-61
2024/03/18 02:33:49;;;;;;;1.50;1.00;;;18.80;57.40;;;;;;5041163;28;20020;-57
2024/03/18 02:36:15;;;;;;;2.22;1.55;;;18.80;57.50;;;;;;5038579;28;20032;-55
2024/03/18 02:38:40;;;;;;;1.92;1.45;;;18.80;57.40;;;;;;5033594;28;20037;-53
2024/03/18 02:41:06;;;;;;;1.27;1.17;;;18.80;57.40;;;;;;5038472;28;20033;-51
2024/03/18 02:43:31;;;;;;;2.78;1.20;;;18.80;57.30;;;;;;5041337;28;20610;-56
2024/03/18 02:45:57;;;;;;;1.40;1.30;;;18.80;57.30;;;;;;5039122;28;20032;-52
2024/03/18 02:48:27;;;;;;;1.38;1.25;;;18.80;57.40;;;;;;5038706;28;20482;-53
2024/03/18 02:50:53;;;;;;;1.58;1.13;;;18.80;57.30;;;;;;5040568;28;20033;-55
2024/03/18 02:53:18;;;;;;;1.45;1.02;;;18.80;57.30;;;;;;5040170;28;20029;-55
2024/03/18 02:55:44;;;;;;;2.65;1.50;;;18.80;57.20;;;;;;5037447;28;20039;-53
2024/03/18 02:58:09;;;;;;;1.65;1.27;;;18.90;57.30;;;;;;5036538;28;20597;-58
2024/03/18 03:00:35;;;;;;;1.27;1.13;;;18.90;57.30;;;;;;5042787;28;20100;-54
2024/03/18 03:03:00;;;;;;;1.10;0.93;;;18.90;57.20;;;;;;5035773;28;20701;-59
2024/03/18 03:05:26;;;;;;;1.20;1.10;;;18.90;57.20;;;;;;5039866;28;20064;-54
2024/03/18 03:07:51;;;;;;;1.40;1.20;;;18.90;57.10;;;;;;5039700;28;20035;-58
2024/03/18 03:10:19;;;;;;;1.83;1.10;;;18.90;57.20;;;;;;5038259;28;20025;-53
2024/03/18 03:12:44;;;;;;;1.20;1.00;;;18.90;57.20;;;;;;5033428;28;20037;-52
2024/03/18 03:15:10;;;;;;;1.30;1.10;;;18.90;57.20;;;;;;5035518;28;20025;-54
2024/03/18 03:17:35;;;;;;;1.83;1.30;;;18.90;57.10;;;;;;5036515;28;20033;-55
2024/03/18 03:20:07;;;;;;;1.80;1.20;;;18.90;57.30;;;;;;5032708;28;20038;-56
2024/03/18 03:22:33;;;;;;;1.20;1.10;;;18.90;57.20;;;;;;5034372;28;21575;-55
2024/03/18 03:24:59;;;;;;;1.40;1.30;;;18.90;57.20;;;;;;5032405;28;20041;-56
2024/03/18 03:27:26;;;;;;;1.92;1.10;;;18.90;57.10;;;;;;5031981;28;20029;-56
2024/03/18 03:29:51;;;;;;;1.58;1.40;;;18.80;57.20;;;;;;5036836;28;20025;-55
2024/03/18 03:32:17;;;;;;;1.90;1.45;;;18.80;57.10;;;;;;5031815;28;20040;-57
2024/03/18 03:34:42;;;;;;;2.30;1.15;;;18.80;57.10;;;;;;5034588;28;20045;-53
2024/03/18 03:37:08;;;;;;;1.10;0.90;;;18.80;57.20;;;;;;5034051;28;20045;-50
2024/03/18 03:39:35;;;;;;;1.70;1.20;;;18.80;57.10;;;;;;5036618;28;20041;-53
2024/03/18 03:42:03;;;;;;;1.85;1.10;;;18.80;57.20;;;;;;5033981;28;20120;-57
2024/03/18 03:44:29;;;;;;;1.63;1.30;;;18.80;57.20;;;;;;5032186;28;20108;-59
2024/03/18 03:46:55;;;;;;;3.85;1.42;;;18.80;57.30;;;;;;5034831;28;20595;-53
2024/03/18 03:49:20;;;;;;;1.35;1.25;;;18.80;57.20;;;;;;5028597;28;20723;-52
2024/03/18 03:51:46;;;;;;;1.02;0.93;;;18.80;57.20;;;;;;5032094;28;20037;-52
2024/03/18 03:54:13;;;;;;;1.38;0.90;;;18.80;57.20;;;;;;5033840;28;20033;-55
2024/03/18 03:56:38;;;;;;;1.55;1.40;;;18.80;57.20;;;;;;5037424;28;20036;-52
2024/03/18 03:59:04;;;;;;;1.98;1.10;;;18.80;57.30;;;;;;5034443;28;20090;-55
2024/03/18 04:01:29;;;;;;;1.33;1.23;;;18.80;57.20;;;;;;5032160;28;20128;-53
2024/03/18 04:03:55;;;;;;;1.63;1.30;;;18.80;57.20;;;;;;5032376;28;20072;-59
2024/03/18 04:06:20;;;;;;;2.08;1.35;;;18.80;57.20;;;;;;5031869;28;20660;-55
2024/03/18 04:08:46;;;;;;;1.85;1.33;;;18.80;57.10;;;;;;5032086;28;20060;-58
2024/03/18 04:11:12;;;;;;;1.17;1.08;;;18.80;57.20;;;;;;5034374;28;20028;-56
2024/03/18 04:13:37;;;;;;;1.60;1.33;;;18.80;57.20;;;;;;5033763;28;20720;-56
2024/03/18 04:16:04;;;;;;;3.20;1.58;;;18.80;57.20;;;;;;5034485;28;20490;-52
2024/03/18 04:18:29;;;;;;;1.42;1.30;;;18.80;57.20;;;;;;5035511;28;20044;-58
2024/03/18 04:20:55;;;;;;;2.45;1.17;;;18.80;57.10;;;;;;5029984;28;20038;-52
2024/03/18 04:23:21;;;;;;;1.60;1.10;;;18.80;57.10;;;;;;5035776;28;20032;-55
2024/03/18 04:25:47;;;;;;;2.95;1.30;;;18.70;57.10;;;;;;5031849;28;22420;-52
2024/03/18 04:28:13;;;;;;;1.70;1.23;;;18.70;57.10;;;;;;5033587;28;20367;-53
2024/03/18 04:30:38;;;;;;;1.20;1.00;;;18.80;57.10;;;;;;5029507;28;20033;-54
2024/03/18 04:33:04;;;;;;;1.90;1.10;;;18.80;57.10;;;;;;5033541;28;20037;-57
2024/03/18 04:35:30;;;;;;;1.70;1.05;;;18.80;57.00;;;;;;5035752;28;20504;-56
2024/03/18 04:37:56;;;;;;;1.08;0.98;;;18.80;57.10;;;;;;5034145;28;20044;-53
2024/03/18 04:40:25;;;;;;;1.73;1.33;;;18.80;57.20;;;;;;5035241;28;20033;-53
2024/03/18 04:42:52;;;;;;;1.42;1.33;;;18.70;57.10;;;;;;5035457;28;20505;-55
2024/03/18 04:45:20;;;;;;;2.13;1.33;;;18.70;57.10;;;;;;5036162;28;20394;-53
2024/03/18 04:47:47;;;;;;;2.00;1.20;;;18.80;57.20;;;;;;5036308;28;20025;-59
2024/03/18 04:50:21;;;;;;;2.20;1.38;;;18.70;57.00;;;;;;5033988;28;20445;-56
2024/03/18 04:52:47;;;;;;;1.30;1.13;;;18.80;57.20;;;;;;5033980;28;20029;-58
2024/03/18 04:55:13;;;;;;;1.40;1.05;;;18.80;57.10;;;;;;5007944;28;20033;-56
2024/03/18 04:57:39;;;;;;;1.50;1.25;;;18.80;57.10;;;;;;5031544;28;20029;-57
2024/03/18 05:00:07;;;;;;;1.50;1.05;;;18.70;57.00;;;;;;5034112;28;20040;-59
2024/03/18 05:02:35;;;;;;;2.13;1.38;;;18.80;57.10;;;;;;5031042;28;20281;-57
2024/03/18 05:05:00;;;;;;;1.85;1.27;;;18.80;57.10;;;;;;5034803;28;20037;-52
2024/03/18 05:07:26;;;;;;;1.85;1.30;;;18.80;57.10;;;;;;5038897;28;20163;-52
2024/03/18 05:09:54;;;;;;;1.30;1.10;;;18.70;57.00;;;;;;5035145;28;20029;-55
2024/03/18 05:12:19;;;;;;;2.17;1.27;;;18.80;57.00;;;;;;5037898;28;20054;-57
2024/03/18 05:14:45;;;;;;;1.70;1.05;;;18.80;57.70;;;;;;5030144;28;20037;-56
2024/03/18 05:17:11;;;;;;;1.38;1.00;;;18.80;57.00;;;;;;5037196;28;20021;-57
2024/03/18 05:19:36;;;;;;;1.98;1.23;;;18.80;57.00;;;;;;5032290;28;20041;-59
2024/03/18 05:22:02;;;;;;;1.60;1.10;;;18.80;57.10;;;;;;5034967;28;20029;-58
2024/03/18 05:24:28;;;;;;;1.88;1.23;;;18.80;57.10;;;;;;5030482;28;20033;-57
2024/03/18 05:26:53;;;;;;;1.25;0.85;;;18.80;57.00;;;;;;5029293;28;20034;-55
2024/03/18 05:29:19;;;;;;;2.58;1.00;;;18.70;56.90;;;;;;5031073;28;20037;-56
2024/03/18 05:31:45;;;;;;;1.20;0.93;;;18.80;57.00;;;;;;5036851;28;20044;-55
2024/03/18 05:34:11;;;;;;;1.50;1.30;;;18.80;57.00;;;;;;5031850;28;20037;-58
2024/03/18 05:36:37;;;;;;;1.38;1.15;;;18.80;57.00;;;;;;5029267;28;20029;-54
2024/03/18 05:39:03;;;;;;;1.80;1.20;;;18.80;57.00;;;;;;5031382;28;20048;-56
2024/03/18 05:41:29;;;;;;;1.63;1.02;;;18.80;56.90;;;;;;5030181;28;20033;-58
2024/03/18 05:43:54;;;;;;;1.40;1.30;;;18.80;57.00;;;;;;5035978;28;20033;-57
2024/03/18 05:46:21;;;;;;;5.45;1.30;;;18.80;56.90;;;;;;5030672;28;20036;-56
2024/03/18 05:48:47;;;;;;;1.60;1.13;;;18.80;56.90;;;;;;5039755;28;20028;-58
2024/03/18 05:51:13;;;;;;;2.03;1.17;;;18.80;56.90;;;;;;5029484;28;20029;-56
2024/03/18 05:53:38;;;;;;;1.38;1.00;;;18.80;56.90;;;;;;5028788;28;20030;-56
2024/03/18 05:56:05;;;;;;;1.10;0.95;;;18.80;56.90;;;;;;5035938;28;20086;-56
2024/03/18 05:58:30;;;;;;;1.77;1.38;;;18.80;56.80;;;;;;5033915;28;20032;-57
2024/03/18 06:00:56;;;;;;;1.02;0.95;;;18.80;56.80;;;;;;5034091;28;20091;-59
2024/03/18 06:03:21;;;;;;;1.27;1.17;;;18.80;56.80;;;;;;5034726;28;20659;-57
2024/03/18 06:05:47;;;;;;;2.55;1.20;;;18.80;57.40;;;;;;5026558;28;20440;-57
2024/03/18 06:08:12;;;;;;;1.52;1.40;;;18.80;56.80;;;;;;5026999;28;20025;-56
2024/03/18 06:10:38;;;;;;;1.30;1.20;;;18.90;56.90;;;;;;5027527;28;20030;-53
2024/03/18 06:13:03;;;;;;;1.65;1.13;;;18.80;56.80;;;;;;5032647;28;20460;-56
2024/03/18 06:15:29;;;;;;;1.60;0.98;;;18.90;56.90;;;;;;5031333;28;20033;-58
2024/03/18 06:17:54;;;;;;;4.88;1.15;;;18.90;56.70;;;;;;5030991;28;20499;-57
2024/03/18 06:20:20;;;;;;;1.63;1.25;;;18.90;56.70;;;;;;5032119;28;20101;-58
2024/03/18 06:22:47;;;;;;;1.38;1.10;;;19.00;56.70;;;;;;5046508;28;20615;-57
2024/03/18 06:27:56;;;;;;;1.88;0.98;;;19.00;56.70;;;;;;5034811;28;20693;-58
2024/03/18 06:30:22;;;;;;;1.20;0.98;;;19.00;56.70;;;;;;5032502;28;20057;-57
2024/03/18 06:32:47;;;;;;;1.88;1.20;;;19.00;56.70;;;;;;5033186;28;20018;-56
2024/03/18 06:35:13;;;;;;;1.15;0.90;;;19.00;56.70;;;;;;5033333;28;20052;-56
2024/03/18 06:37:39;;;;;;;1.73;1.20;;;19.00;56.70;;;;;;5033664;28;20052;-56
2024/03/18 06:40:08;;;;;;;3.10;1.08;;;19.00;56.70;;;;;;5031107;28;20387;-56
2024/03/18 06:42:34;;;;;;;1.25;1.00;;;19.00;56.70;;;;;;5034529;28;20064;-56
2024/03/18 06:45:00;;;;;;;2.78;1.33;;;19.00;56.80;;;;;;5035657;28;20398;-56
2024/03/18 06:47:26;;;;;;;1.98;1.30;;;19.00;56.70;;;;;;5034496;28;20039;-57
2024/03/18 06:49:52;;;;;;;1.63;1.27;;;19.00;56.70;;;;;;5039698;28;20144;-55
2024/03/18 06:52:17;;;;;;;2.00;1.02;;;19.00;56.80;;;;;;5038826;28;20104;-57
2024/03/18 06:54:43;;;;;;;3.30;1.35;;;19.00;56.70;;;;;;5035325;28;20109;-58
2024/03/18 06:57:10;;;;;;;3.80;1.48;;;19.00;56.80;;;;;;5027306;28;20107;-53
2024/03/18 06:59:35;;;;;;;3.28;1.40;;;19.00;56.80;;;;;;5032566;28;20040;-58
2024/03/18 07:02:01;;;;;;;2.13;1.25;;;19.00;56.80;;;;;;5038306;28;20095;-56
2024/03/18 07:04:27;;;;;;;2.30;1.23;;;19.00;56.90;;;;;;5038173;28;20733;-53
2024/03/18 07:06:52;;;;;;;1.88;1.20;;;19.00;56.80;;;;;;5039222;28;20036;-53
2024/03/18 07:09:19;;;;;;;1.63;1.30;;;19.00;56.80;;;;;;5033426;28;20095;-56
2024/03/18 07:11:45;;;;;;;3.85;2.05;;;19.00;56.70;;;;;;5027302;28;20025;-54
2024/03/18 07:14:10;;;;;;;4.07;2.30;;;19.10;56.80;;;;;;5045337;28;20547;-53
2024/03/18 07:16:36;;;;;;;8.25;3.30;;;19.00;56.70;;;;;;5035809;28;20060;-59
2024/03/18 07:19:01;;;;;;;8.15;3.45;;;19.00;56.70;;;;;;5035894;28;20033;-50
2024/03/18 07:21:27;;;;;;;7.80;3.65;;;19.00;56.70;;;;;;5034616;28;20809;-52
2024/03/18 07:23:52;;;;;;;8.23;3.28;;;19.00;56.70;;;;;;5037248;28;20033;-55
2024/03/18 07:26:18;;;;;;;11.32;3.50;;;19.00;56.80;;;;;;5039902;28;20025;-59
2024/03/18 07:28:44;;;;;;;6.55;3.42;;;19.00;56.90;;;;;;5030669;28;20060;-55
2024/03/18 07:31:13;;;;;;;9.77;3.95;;;19.00;56.90;;;;;;5037114;28;20053;-59
2024/03/18 07:33:42;;;;;;;8.93;4.20;;;19.00;56.90;;;;;;5036761;28;20469;-53
2024/03/18 07:36:08;;;;;;;8.65;4.03;;;19.00;57.00;;;;;;5032949;28;20506;-55
2024/03/18 07:38:33;;;;;;;12.85;4.47;;;19.00;57.10;;;;;;5032972;28;20047;-52
2024/03/18 07:41:00;;;;;;;11.73;4.30;;;18.90;57.10;;;;;;5031787;28;20128;-53
2024/03/18 07:43:25;;;;;;;11.30;4.47;;;18.90;57.20;;;;;;5033084;28;20033;-53
2024/03/18 07:45:51;;;;;;;13.40;4.95;;;18.80;57.20;;;;;;5037561;28;20118;-54
2024/03/18 07:48:16;;;;;;;13.30;4.70;;;18.80;57.30;;;;;;5054086;28;20125;-56
2024/03/18 07:50:42;;;;;;;11.02;4.63;;;18.80;57.40;;;;;;5034182;28;20505;-52
2024/03/18 07:53:07;;;;;;;13.35;4.97;;;18.80;57.50;;;;;;5036972;28;20486;-52
2024/03/18 07:55:33;;;;;;;9.80;4.35;;;18.70;57.40;;;;;;5029802;28;20078;-61
2024/03/18 07:57:59;;;;;;;13.50;5.03;;;18.70;57.50;;;;;;5033360;28;20033;-57
2024/03/18 08:00:24;;;;;;;12.23;5.10;;;18.70;57.50;;;;;;5037840;28;20033;-60
2024/03/18 08:02:50;;;;;;;11.57;4.38;;;18.70;57.50;;;;;;5030915;28;20037;-53
2024/03/18 08:05:15;;;;;;;11.35;4.55;;;18.70;57.60;;;;;;5036558;28;20037;-59
2024/03/18 08:07:41;;;;;;;10.80;4.93;;;18.60;57.50;;;;;;5031986;28;20045;-59
2024/03/18 08:10:07;;;;;;;8.30;4.43;;;18.60;57.60;;;;;;5037121;28;20035;-55
2024/03/18 08:12:33;;;;;;;11.18;4.47;;;18.60;57.60;;;;;;5031117;28;20053;-56
2024/03/18 08:14:58;;;;;;;9.07;4.22;;;18.60;57.60;;;;;;5038038;28;20111;-52
2024/03/18 08:17:24;;;;;;;10.10;3.83;;;18.60;57.60;;;;;;5035595;28;20132;-59
2024/03/18 08:19:49;;;;;;;6.53;3.83;;;18.60;57.50;;;;;;5030245;28;20037;-61
2024/03/18 08:22:18;;;;;;;8.63;3.92;;;18.70;57.50;;;;;;5031290;28;20060;-50
2024/03/18 08:24:46;;;;;;;9.68;4.35;;;18.70;57.40;;;;;;5030445;28;20029;-58
2024/03/18 08:27:12;;;;;;;7.40;3.83;;;18.70;57.30;;;;;;5033465;28;20025;-61
2024/03/18 08:29:37;;;;;;;11.73;4.53;;;18.80;57.10;;;;;;5031042;28;20087;-61
2024/03/18 08:32:03;;;;;;;9.98;3.80;;;18.80;57.00;;;;;;5035957;28;20029;-51
2024/03/18 08:34:29;;;;;;;8.13;3.78;;;18.90;56.90;;;;;;5038376;28;20033;-55
2024/03/18 08:36:55;;;;;;;7.47;4.55;;;19.00;56.90;;;;;;5029791;28;20044;-52
2024/03/18 08:39:21;;;;;;;7.00;3.38;;;19.00;56.70;;;;;;5031491;28;20033;-53
2024/03/18 08:41:47;;;;;;;6.68;3.28;;;19.10;56.60;;;;;;5034300;28;20029;-55
2024/03/18 08:44:12;;;;;;;9.82;4.15;;;19.20;56.50;;;;;;5033580;28;20083;-56
2024/03/18 08:46:40;;;;;;;6.40;3.53;;;19.20;56.40;;;;;;5036486;28;20037;-59
2024/03/18 08:49:07;;;;;;;5.45;3.15;;;19.30;56.30;;;;;;5038131;28;20098;-52
2024/03/18 08:51:33;;;;;;;7.00;3.50;;;19.30;56.20;;;;;;5031090;28;20033;-52
2024/03/18 08:53:59;;;;;;;5.85;3.20;;;19.30;56.10;;;;;;5033466;28;20035;-56
2024/03/18 08:56:24;;;;;;;6.10;3.00;;;19.40;56.10;;;;;;5030112;28;20037;-55
2024/03/18 08:58:50;;;;;;;4.57;3.42;;;19.40;55.90;;;;;;5032360;28;20050;-59
2024/03/18 09:01:16;;;;;;;7.07;3.40;;;19.40;55.90;;;;;;5034645;28;20036;-57
2024/03/18 09:03:41;;;;;;;5.95;3.35;;;19.50;55.90;;;;;;5032433;28;20025;-58
2024/03/18 09:06:07;;;;;;;5.82;3.10;;;19.50;55.80;;;;;;5032558;28;20052;-56
2024/03/18 09:08:32;;;;;;;6.18;3.25;;;19.50;55.80;;;;;;5035890;28;20033;-55
2024/03/18 09:10:58;;;;;;;9.32;4.03;;;19.50;55.70;;;;;;5030499;28;20055;-55
2024/03/18 09:13:24;;;;;;;6.88;3.40;;;19.50;55.70;;;;;;5039594;28;20759;-57
2024/03/18 09:15:49;;;;;;;4.35;2.92;;;19.50;55.80;;;;;;5028272;28;20067;-56
2024/03/18 09:18:15;;;;;;;6.00;3.22;;;19.60;55.80;;;;;;5038208;28;20385;-55
2024/03/18 09:20:40;;;;;;;6.13;3.80;;;19.60;55.80;;;;;;5034051;28;20021;-58
2024/03/18 09:23:07;;;;;;;4.70;3.38;;;19.60;55.80;;;;;;5033545;28;20387;-58
2024/03/18 09:25:33;;;;;;;8.18;3.25;;;19.60;55.90;;;;;;5031250;28;20117;-64
2024/03/18 09:27:59;;;;;;;5.68;3.05;;;19.50;55.90;;;;;;5036368;28;20094;-56
2024/03/18 09:30:26;;;;;;;6.50;3.60;;;19.50;55.90;;;;;;5031832;28;20029;-59
2024/03/18 09:32:51;;;;;;;4.72;2.30;;;19.50;55.90;;;;;;5031438;28;20518;-56
2024/03/18 09:35:17;;;;;;;5.07;2.92;;;19.50;55.80;;;;;;5045961;28;20064;-57
2024/03/18 09:37:42;;;;;;;5.35;3.00;;;19.50;55.90;;;;;;5032682;28;20718;-56
2024/03/18 09:40:08;;;;;;;6.45;2.92;;;19.50;56.10;;;;;;5032847;28;20407;-58
2024/03/18 09:42:36;;;;;;;3.92;2.60;;;19.50;56.00;;;;;;5034037;28;20040;-56
2024/03/18 09:45:02;;;;;;;5.10;2.90;;;19.40;56.10;;;;;;5036959;28;20060;-55
2024/03/18 09:47:31;;;;;;;3.72;2.28;;;19.40;56.10;;;;;;5035447;28;20060;-57
2024/03/18 09:49:57;;;;;;;5.90;2.97;;;19.40;56.20;;;;;;5033298;28;20430;-56
2024/03/18 09:52:24;;;;;;;5.47;2.70;;;19.40;56.30;;;;;;5010490;28;20037;-57
2024/03/18 09:54:50;;;;;;;4.45;2.45;;;19.30;56.30;;;;;;4973932;28;20136;-56
2024/03/18 09:57:18;;;;;;;5.60;2.78;;;19.30;56.30;;;;;;5028822;28;22421;-56
2024/03/18 09:59:44;;;;;;;3.80;2.53;;;19.30;56.30;;;;;;5025574;28;20048;-58
2024/03/18 10:02:16;;;;;;;3.55;2.17;;;19.30;56.50;;;;;;5032661;28;20036;-59
2024/03/18 10:04:42;;;;;;;4.10;2.80;;;19.30;56.50;;;;;;5027206;28;20095;-57
2024/03/18 10:07:12;;;;;;;5.43;2.92;;;19.20;56.40;;;;;;5030775;28;20044;-56
2024/03/18 10:09:38;;;;;;;4.35;2.53;;;19.20;56.50;;;;;;5028399;28;20033;-56
2024/03/18 10:12:04;;;;;;;4.75;2.45;;;19.20;56.60;;;;;;5031653;28;20055;-55
2024/03/18 10:14:29;;;;;;;4.05;2.50;;;19.20;56.60;;;;;;5029603;28;20422;-57
2024/03/18 10:16:56;;;;;;;3.05;2.00;;;19.20;56.60;;;;;;5031322;28;20732;-56
2024/03/18 10:19:22;;;;;;;3.10;2.33;;;19.20;56.70;;;;;;5028304;28;20548;-59
2024/03/18 10:21:47;;;;;;;4.95;2.50;;;19.20;56.70;;;;;;5026922;28;20041;-58
2024/03/18 10:24:16;;;;;;;4.20;2.17;;;19.20;56.70;;;;;;5034164;28;20628;-56
2024/03/18 10:26:44;;;;;;;3.38;1.80;;;19.10;56.70;;;;;;5024341;28;20094;-58
2024/03/18 10:29:09;;;;;;;5.50;2.53;;;19.10;56.80;;;;;;5031493;28;20033;-57
2024/03/18 10:31:38;;;;;;;6.20;2.65;;;19.10;56.80;;;;;;5040745;28;20066;-59
2024/03/18 10:34:08;;;;;;;4.22;2.08;;;19.10;56.80;;;;;;5029929;28;20123;-56
2024/03/18 10:36:35;;;;;;;3.28;2.30;;;19.10;56.80;;;;;;5036142;28;20032;-57
2024/03/18 10:39:08;;;;;;;5.10;2.60;;;19.10;56.80;;;;;;5045234;22;20048;-55
2024/03/18 10:41:38;;;;;;;3.13;2.10;;;19.00;56.90;;;;;;5032064;28;20025;-55
2024/03/18 10:44:17;;;;;;;5.32;2.58;;;19.00;56.90;;;;;;5038039;28;20028;-54
2024/03/18 10:46:43;;;;;;;4.35;2.10;;;19.10;56.90;;;;;;5039147;28;20182;-54
2024/03/18 10:49:17;;;;;;;4.90;2.40;;;19.10;57.00;;;;;;5032903;28;20025;-57
2024/03/18 10:51:51;;;;;;;7.03;3.97;;;19.00;56.90;;;;;;5037690;28;20044;-61
2024/03/18 10:54:17;;;;;;;12.15;6.05;;;19.00;56.90;;;;;;5034601;28;20090;-53
2024/03/18 10:56:47;;;;;;;14.48;7.63;;;19.00;57.10;;;;;;5035283;28;20025;-58
2024/03/18 10:59:15;;;;;;;18.77;10.85;;;19.00;57.00;;;;;;5033793;28;20109;-61
2024/03/18 11:01:42;;;;;;;17.40;9.73;;;19.00;57.00;;;;;;5038812;28;20101;-59
2024/03/18 11:04:28;;;;;;;24.15;13.00;;;19.00;57.10;;;;;;5026008;28;20029;-61
2024/03/18 11:06:55;;;;;;;33.13;14.77;;;19.00;57.10;;;;;;5034310;28;20032;-57
2024/03/18 11:09:22;;;;;;;27.98;14.55;;;19.00;57.20;;;;;;5035293;28;20539;-55
2024/03/18 11:11:48;;;;;;;30.67;16.95;;;19.00;57.10;;;;;;5035603;28;20044;-54
2024/03/18 11:14:27;;;;;;;34.90;18.05;;;19.00;57.20;;;;;;5030454;28;20033;-59
2024/03/18 11:16:54;;;;;;;34.05;17.98;;;19.00;57.20;;;;;;5032708;28;20758;-54
2024/03/18 11:19:24;;;;;;;36.47;20.10;;;19.00;57.20;;;;;;5026519;28;20083;-56
2024/03/18 11:22:00;;;;;;;41.47;21.88;;;19.00;57.20;;;;;;5032187;28;20086;-54
2024/03/18 11:24:27;;;;;;;40.10;20.85;;;18.90;57.20;;;;;;5030129;28;20037;-62
2024/03/18 11:26:55;;;;;;;41.25;22.88;;;19.00;57.30;;;;;;5034217;28;20036;-56
2024/03/18 11:29:21;;;;;;;43.75;23.35;;;19.00;57.30;;;;;;5033973;28;20108;-58
2024/03/18 11:31:52;;;;;;;43.28;23.17;;;18.90;57.30;;;;;;5046915;28;20108;-54
2024/03/18 11:34:23;;;;;;;47.00;24.20;;;19.00;57.20;;;;;;5038039;28;20499;-61
2024/03/18 11:36:49;;;;;;;43.55;24.52;;;19.00;57.20;;;;;;5029480;28;20120;-53
2024/03/18 11:39:17;;;;;;;44.38;25.52;;;18.90;57.20;;;;;;5034628;28;20140;-54
2024/03/18 11:41:45;;;;;;;40.92;23.67;;;19.00;57.20;;;;;;5034179;28;20120;-60
2024/03/18 11:44:14;;;;;;;44.97;25.35;;;18.90;57.20;;;;;;5034918;28;20033;-57
2024/03/18 11:46:41;;;;;;;47.58;26.52;;;19.00;57.20;;;;;;5028159;28;20029;-61
2024/03/18 11:49:20;;;;;;;44.50;24.77;;;18.90;57.10;;;;;;5030507;28;20083;-55
2024/03/18 11:51:45;;;;;;;48.92;26.02;;;19.00;57.20;;;;;;5036653;28;20040;-50
2024/03/18 11:54:11;;;;;;;51.65;25.90;;;19.00;57.20;;;;;;5032010;28;20062;-51
2024/03/18 11:56:37;;;;;;;45.90;26.35;;;19.00;57.10;;;;;;5025446;28;20056;-62
2024/03/18 11:59:03;;;;;;;44.22;24.85;;;19.00;57.10;;;;;;5032354;28;20082;-60
2024/03/18 12:01:30;;;;;;;49.45;26.00;;;19.00;57.10;;;;;;5028641;28;20033;-57
2024/03/18 12:03:56;;;;;;;50.97;26.40;;;19.00;57.10;;;;;;5033240;28;20487;-54
2024/03/18 12:06:21;;;;;;;48.40;26.95;;;19.00;57.10;;;;;;5026151;28;20038;-56
2024/03/18 12:08:48;;;;;;;44.47;25.83;;;19.00;57.10;;;;;;5035632;28;20030;-57
2024/03/18 12:11:14;;;;;;;42.40;23.58;;;19.00;57.10;;;;;;5023844;28;20103;-58
2024/03/18 12:13:40;;;;;;;43.75;26.10;;;19.00;57.10;;;;;;5031766;28;20479;-51
2024/03/18 12:16:12;;;;;;;43.63;25.92;;;19.00;57.20;;;;;;5025937;28;20040;-52
2024/03/18 12:18:37;;;;;;;44.72;25.05;;;19.00;57.10;;;;;;5029961;28;20037;-57
2024/03/18 12:21:03;;;;;;;49.28;25.63;;;19.00;57.10;;;;;;5039158;28;20032;-62
2024/03/18 12:29:02;;;;;;;40.53;23.67;;;19.00;57.10;;;;;;5029451;28;20028;-55
2024/03/18 12:31:36;;;;;;;39.50;23.35;;;19.00;57.10;;;;;;5029350;28;20034;-57
2024/03/18 12:34:03;;;;;;;38.00;24.67;;;19.00;57.10;;;;;;5026476;28;20030;-57
2024/03/18 12:36:32;;;;;;;40.90;25.20;;;19.00;57.10;;;;;;5028140;28;20478;-57
2024/03/18 12:39:08;;;;;;;46.42;24.08;;;19.00;57.20;;;;;;5032861;28;20131;-61
2024/03/18 12:41:36;;;;;;;40.00;21.55;;;19.00;57.10;;;;;;5032379;28;20037;-59
2024/03/18 12:44:02;;;;;;;42.50;24.08;;;19.00;57.00;;;;;;5027493;28;20037;-53
2024/03/18 12:46:28;;;;;;;41.03;23.27;;;19.00;57.00;;;;;;5031043;28;20022;-59
2024/03/18 12:48:54;;;;;;;44.45;23.63;;;19.00;57.00;;;;;;5032276;28;20026;-53
2024/03/18 12:51:20;;;;;;;39.25;21.88;;;19.10;57.00;;;;;;5032019;28;20045;-54